createdAt,value
2019-03-25T00:00:40.815Z,15.75
2019-03-25T00:03:09.411Z,8.90
2019-03-25T00:05:37.775Z,14.55
2019-03-25T00:08:06.334Z,14.28
2019-03-25T00:10:34.751Z,12.88
2019-03-25T00:13:05.966Z,17.15
2019-03-25T00:15:34.359Z,12.40
2019-03-25T00:18:02.771Z,15.72
2019-03-25T00:20:33.621Z,11.43
2019-03-25T00:23:02.674Z,11.78
2019-03-25T00:25:34.903Z,10.50
2019-03-25T00:28:03.302Z,15.83
2019-03-25T00:30:32.960Z,15.28
2019-03-25T00:33:01.252Z,16.20
2019-03-25T00:35:32.483Z,14.33
2019-03-25T00:38:00.963Z,12.63
2019-03-25T00:40:30.317Z,12.00
2019-03-25T00:42:58.765Z,15.40
2019-03-25T00:45:27.167Z,21.42
2019-03-25T00:47:55.542Z,16.70
2019-03-25T00:50:23.958Z,14.15
2019-03-25T00:52:52.387Z,20.37
2019-03-25T00:55:20.784Z,16.37
2019-03-25T00:57:50.140Z,16.35
2019-03-25T01:00:20.060Z,19.10
2019-03-25T01:02:52.623Z,17.90
2019-03-25T01:05:22.087Z,20.80
2019-03-25T01:07:54.975Z,18.77
2019-03-25T01:10:23.337Z,15.35
2019-03-25T01:12:51.743Z,19.02
2019-03-25T01:15:20.173Z,21.23
2019-03-25T01:17:49.621Z,20.10
2019-03-25T01:20:18.078Z,22.30
2019-03-25T01:22:50.087Z,21.90
2019-03-25T01:25:18.495Z,20.08
2019-03-25T01:27:50.946Z,19.40
2019-03-25T01:30:19.355Z,25.40
2019-03-25T01:32:47.804Z,20.60
2019-03-25T01:35:16.184Z,20.85
2019-03-25T01:37:44.680Z,17.62
2019-03-25T01:40:14.605Z,22.37
2019-03-25T01:42:43.006Z,20.43
2019-03-25T01:45:11.551Z,23.45
2019-03-25T01:47:40.953Z,18.37
2019-03-25T01:50:11.359Z,25.27
2019-03-25T01:52:39.473Z,17.42
2019-03-25T01:55:13.441Z,15.78
2019-03-25T01:57:38.233Z,21.42
2019-03-25T02:00:07.676Z,21.67
2019-03-25T02:02:37.773Z,19.65
2019-03-25T02:05:07.192Z,16.32
2019-03-25T02:07:35.584Z,20.02
2019-03-25T02:10:05.833Z,20.45
2019-03-25T02:12:34.223Z,21.60
2019-03-25T02:15:02.649Z,18.60
2019-03-25T02:17:31.029Z,23.75
2019-03-25T02:19:59.413Z,19.42
2019-03-25T02:22:29.006Z,20.00
2019-03-25T02:24:57.453Z,20.77
2019-03-25T02:27:25.847Z,16.40
2019-03-25T02:29:54.254Z,14.87
2019-03-25T02:32:22.718Z,17.87
2019-03-25T02:34:52.190Z,12.98
2019-03-25T02:37:20.625Z,13.55
2019-03-25T02:39:49.025Z,11.08
2019-03-25T02:42:17.443Z,11.33
2019-03-25T02:44:47.952Z,9.63
2019-03-25T02:47:16.424Z,6.67
2019-03-25T02:49:44.833Z,7.83
2019-03-25T02:52:13.198Z,8.43
2019-03-25T02:54:45.778Z,6.42
2019-03-25T02:57:20.280Z,9.58
2019-03-25T02:59:48.676Z,5.42
2019-03-25T03:02:17.074Z,7.53
2019-03-25T03:04:45.467Z,7.55
2019-03-25T03:07:14.959Z,10.48
2019-03-25T03:09:43.339Z,8.07
2019-03-25T03:12:11.736Z,5.60
2019-03-25T03:14:42.019Z,7.80
2019-03-25T03:17:11.336Z,7.87
2019-03-25T03:19:39.731Z,9.23
2019-03-25T03:22:08.129Z,8.15
2019-03-25T03:24:36.508Z,9.88
2019-03-25T03:27:06.038Z,10.95
2019-03-25T03:29:35.498Z,10.65
2019-03-25T03:32:04.080Z,9.03
2019-03-25T03:34:35.379Z,11.87
2019-03-25T03:37:07.754Z,11.45
2019-03-25T03:39:36.144Z,11.80
2019-03-25T03:42:04.721Z,9.70
2019-03-25T03:44:34.227Z,9.70
2019-03-25T03:47:02.743Z,8.85
2019-03-25T03:49:34.627Z,10.83
2019-03-25T03:52:03.324Z,20.27
2019-03-25T03:54:32.307Z,11.47
2019-03-25T03:57:00.865Z,9.55
2019-03-25T03:59:29.251Z,10.25
2019-03-25T04:02:01.451Z,13.22
2019-03-25T04:04:29.846Z,6.53
2019-03-25T04:06:58.234Z,8.48
2019-03-25T04:09:31.913Z,6.70
2019-03-25T04:12:01.293Z,4.65
2019-03-25T04:14:29.768Z,2.35
2019-03-25T04:16:58.083Z,2.02
2019-03-25T04:19:26.480Z,4.33
2019-03-25T04:21:54.875Z,1.65
2019-03-25T04:24:23.281Z,2.55
2019-03-25T04:26:51.674Z,2.27
2019-03-25T04:29:20.090Z,7.17
2019-03-25T04:31:50.975Z,2.60
2019-03-25T04:34:19.392Z,6.42
2019-03-25T04:36:47.781Z,4.17
2019-03-25T04:39:16.196Z,7.42
2019-03-25T04:41:44.623Z,6.60
2019-03-25T04:44:12.997Z,5.33
2019-03-25T04:46:42.475Z,5.12
2019-03-25T04:49:10.858Z,7.97
2019-03-25T04:51:40.273Z,5.08
2019-03-25T04:54:12.473Z,7.70
2019-03-25T04:56:40.886Z,5.35
2019-03-25T04:59:09.282Z,8.95
2019-03-25T05:01:37.679Z,8.83
2019-03-25T05:04:06.078Z,3.45
2019-03-25T05:06:34.505Z,7.10
2019-03-25T05:09:03.247Z,3.87
2019-03-25T05:11:31.649Z,7.55
2019-03-25T05:14:00.078Z,7.33
2019-03-25T05:16:31.285Z,3.20
2019-03-25T05:18:59.670Z,5.62
2019-03-25T05:21:28.111Z,7.30
2019-03-25T05:23:57.603Z,6.58
2019-03-25T05:26:28.736Z,10.03
2019-03-25T05:28:58.008Z,11.15
2019-03-25T05:31:30.201Z,7.58
2019-03-25T05:33:58.641Z,13.85
2019-03-25T05:36:27.740Z,14.47
2019-03-25T05:38:56.188Z,10.53
2019-03-25T05:41:24.624Z,12.40
2019-03-25T05:43:53.002Z,15.85
2019-03-25T05:46:21.493Z,7.65
2019-03-25T05:48:49.918Z,10.95
2019-03-25T05:51:18.305Z,10.55
2019-03-25T05:53:46.734Z,16.17
2019-03-25T05:56:15.138Z,12.63
2019-03-25T05:58:43.541Z,13.90
2019-03-25T06:01:13.206Z,13.48
2019-03-25T06:03:41.582Z,9.85
2019-03-25T06:06:12.505Z,9.68
2019-03-25T06:08:40.900Z,7.53
2019-03-25T06:11:09.368Z,12.93
2019-03-25T06:13:37.746Z,7.75
2019-03-25T06:16:06.151Z,8.30
2019-03-25T06:18:34.554Z,8.20
2019-03-25T06:21:02.975Z,6.78
2019-03-25T06:23:31.395Z,7.12
2019-03-25T06:25:59.859Z,7.12
2019-03-25T06:28:30.431Z,10.25
2019-03-25T06:30:58.838Z,7.40
2019-03-25T06:33:27.225Z,5.47
2019-03-25T06:35:55.631Z,5.60
2019-03-25T06:38:24.023Z,9.95
2019-03-25T06:40:52.417Z,10.30
2019-03-25T06:43:20.874Z,12.43
2019-03-25T06:45:50.229Z,6.33
2019-03-25T06:48:18.596Z,9.58
2019-03-25T06:50:47.102Z,4.60
2019-03-25T06:53:15.506Z,4.62
2019-03-25T06:55:43.896Z,7.62
2019-03-25T06:58:14.166Z,6.15
2019-03-25T07:00:43.587Z,9.08
2019-03-25T07:03:11.973Z,5.62
2019-03-25T07:05:40.399Z,6.22
2019-03-25T07:08:08.790Z,5.30
2019-03-25T07:10:38.342Z,6.43
2019-03-25T07:13:06.902Z,4.03
2019-03-25T07:15:35.291Z,6.33
2019-03-25T07:18:06.807Z,6.37
2019-03-25T07:20:35.270Z,4.60
2019-03-25T07:23:03.685Z,5.70
2019-03-25T07:25:32.073Z,4.85
2019-03-25T07:28:00.457Z,7.35
2019-03-25T07:30:28.869Z,7.75
2019-03-25T07:32:57.247Z,7.85
2019-03-25T07:35:29.239Z,9.43
2019-03-25T07:37:57.666Z,4.78
2019-03-25T07:40:26.082Z,8.25
2019-03-25T07:42:54.467Z,7.42
2019-03-25T07:45:25.126Z,10.32
2019-03-25T07:47:53.536Z,10.30
2019-03-25T07:50:24.575Z,6.37
2019-03-25T07:52:52.983Z,7.47
2019-03-25T07:55:21.367Z,3.67
2019-03-25T07:57:51.761Z,7.20
2019-03-25T08:00:25.330Z,5.92
2019-03-25T08:02:53.792Z,6.33
2019-03-25T08:05:22.185Z,4.42
2019-03-25T08:07:50.543Z,4.62
2019-03-25T08:10:33.426Z,9.35
2019-03-25T08:13:04.970Z,5.42
2019-03-25T08:15:33.869Z,10.90
2019-03-25T08:18:02.499Z,4.97
2019-03-25T08:20:31.910Z,7.20
2019-03-25T08:23:01.943Z,12.37
2019-03-25T08:25:30.356Z,7.73
2019-03-25T08:28:00.339Z,9.10
2019-03-25T08:30:29.012Z,13.80
2019-03-25T08:32:57.458Z,9.15
2019-03-25T08:35:28.098Z,9.13
2019-03-25T08:37:56.058Z,9.88
2019-03-25T08:40:26.414Z,5.12
2019-03-25T08:42:54.797Z,5.92
2019-03-25T08:45:23.187Z,5.20
2019-03-25T08:47:51.563Z,6.28
2019-03-25T08:50:25.441Z,6.65
2019-03-25T08:52:53.842Z,7.62
2019-03-25T08:55:22.248Z,8.15
2019-03-25T08:57:50.648Z,6.40
2019-03-25T09:00:20.315Z,5.35
2019-03-25T09:02:48.728Z,6.08
2019-03-25T09:05:17.185Z,6.70
2019-03-25T09:07:45.582Z,9.40
2019-03-25T09:10:14.314Z,8.48
2019-03-25T09:12:42.705Z,5.72
2019-03-25T09:15:15.578Z,6.45
2019-03-25T09:17:43.954Z,8.08
2019-03-25T09:20:16.391Z,6.10
2019-03-25T09:25:13.865Z,8.55
2019-03-25T09:27:43.310Z,6.05
2019-03-25T09:30:14.876Z,10.45
2019-03-25T09:32:43.283Z,2.67
2019-03-25T09:35:12.134Z,3.25
2019-03-25T09:37:40.507Z,4.60
2019-03-25T09:40:10.558Z,5.22
2019-03-25T09:42:39.348Z,3.75
2019-03-25T09:45:13.077Z,2.98
2019-03-25T09:47:42.650Z,1.85
2019-03-25T09:50:13.840Z,5.78
2019-03-25T09:52:42.242Z,2.52
2019-03-25T09:55:16.577Z,6.08
2019-03-25T09:57:45.152Z,4.50
2019-03-25T10:00:13.977Z,3.83
2019-03-25T10:02:42.397Z,3.67
2019-03-25T10:05:12.112Z,3.60
2019-03-25T10:07:40.508Z,6.12
2019-03-25T10:10:09.458Z,4.95
2019-03-25T10:12:37.876Z,5.78
2019-03-25T10:15:08.404Z,3.90
2019-03-25T10:17:39.200Z,4.95
2019-03-25T10:20:08.039Z,4.72
2019-03-25T10:22:36.648Z,4.10
2019-03-25T10:25:07.796Z,5.17
2019-03-25T10:27:36.438Z,3.70
2019-03-25T10:30:12.420Z,5.92
2019-03-25T10:32:40.824Z,6.25
2019-03-25T10:35:09.844Z,4.97
2019-03-25T10:37:38.301Z,5.40
2019-03-25T10:40:07.259Z,3.15
2019-03-25T10:42:35.635Z,8.05
2019-03-25T10:45:06.126Z,7.33
2019-03-25T10:47:34.551Z,7.30
2019-03-25T10:50:02.935Z,9.58
2019-03-25T10:52:31.338Z,11.80
2019-03-25T10:54:59.765Z,8.20
2019-03-25T10:57:28.165Z,5.05
2019-03-25T10:59:56.551Z,4.08
2019-03-25T11:02:24.939Z,7.78
2019-03-25T11:04:53.312Z,12.63
2019-03-25T11:07:21.812Z,6.62
2019-03-25T11:09:50.278Z,7.47
2019-03-25T11:12:18.687Z,6.78
2019-03-25T11:14:47.096Z,6.92
2019-03-25T11:17:15.469Z,7.97
2019-03-25T11:19:43.848Z,5.60
2019-03-25T11:22:12.253Z,7.05
2019-03-25T11:24:40.696Z,6.03
2019-03-25T11:27:11.515Z,8.40
2019-03-25T11:29:42.638Z,6.17
2019-03-25T11:32:11.011Z,5.35
2019-03-25T11:34:39.424Z,5.05
2019-03-25T11:37:07.887Z,7.60
2019-03-25T11:39:36.269Z,6.25
2019-03-25T11:42:10.403Z,4.75
2019-03-25T11:44:42.669Z,6.53
2019-03-25T11:47:11.064Z,6.47
2019-03-25T11:49:39.469Z,7.67
2019-03-25T11:52:07.877Z,6.62
2019-03-25T11:54:36.797Z,7.05
2019-03-25T11:57:10.070Z,3.75
2019-03-25T11:59:40.595Z,2.70
2019-03-25T12:02:17.254Z,1.98
2019-03-25T12:04:39.137Z,1.60
2019-03-25T12:07:09.460Z,2.75
2019-03-25T12:09:37.863Z,2.87
2019-03-25T12:12:06.246Z,3.25
2019-03-25T12:14:40.125Z,4.13
2019-03-25T12:17:14.986Z,1.50
2019-03-25T12:22:22.203Z,3.37
2019-03-25T12:24:50.594Z,3.45
2019-03-25T12:27:19.051Z,7.53
2019-03-25T12:29:47.425Z,6.65
2019-03-25T12:32:15.824Z,9.20
2019-03-25T12:34:48.030Z,5.93
2019-03-25T12:37:17.381Z,7.83
2019-03-25T12:39:45.799Z,7.45
2019-03-25T12:42:16.402Z,6.62
2019-03-25T12:44:44.789Z,4.40
2019-03-25T12:47:13.196Z,8.10
2019-03-25T12:49:49.981Z,12.40
2019-03-25T12:52:18.384Z,6.95
2019-03-25T12:54:46.801Z,11.25
2019-03-25T12:57:19.781Z,12.05
2019-03-25T12:59:53.078Z,8.00
2019-03-25T13:02:21.457Z,6.30
2019-03-25T13:05:01.928Z,11.97
2019-03-25T13:07:53.298Z,10.08
2019-03-25T13:10:24.375Z,3.37
2019-03-25T13:12:56.904Z,2.58
2019-03-25T13:15:25.367Z,2.15
2019-03-25T13:17:53.752Z,3.80
2019-03-25T13:20:22.921Z,3.40
2019-03-25T13:22:57.570Z,4.15
2019-03-25T13:25:26.948Z,2.87
2019-03-25T13:27:55.326Z,2.87
2019-03-25T13:30:26.435Z,3.00
2019-03-25T13:32:54.897Z,1.70
2019-03-25T13:35:23.311Z,3.95
2019-03-25T13:37:51.711Z,1.82
2019-03-25T13:40:20.289Z,1.00
2019-03-25T13:42:48.679Z,2.83
2019-03-25T13:45:18.222Z,5.33
2019-03-25T13:47:46.633Z,4.10
2019-03-25T13:50:15.122Z,5.17
2019-03-25T13:52:44.596Z,1.62
2019-03-25T13:55:17.924Z,4.10
2019-03-25T13:57:48.311Z,2.45
2019-03-25T14:00:20.845Z,3.93
2019-03-25T14:05:16.826Z,4.87
2019-03-25T14:07:45.269Z,6.97
2019-03-25T14:10:16.927Z,6.67
2019-03-25T14:12:46.788Z,5.57
2019-03-25T14:15:15.256Z,2.58
2019-03-25T14:17:47.706Z,7.58
2019-03-25T14:20:17.737Z,6.97
2019-03-25T14:22:48.781Z,6.87
2019-03-25T14:25:17.181Z,8.33
2019-03-25T14:27:48.215Z,6.53
2019-03-25T14:30:16.955Z,7.95
2019-03-25T14:32:45.414Z,9.45
2019-03-25T14:35:14.019Z,6.62
2019-03-25T14:37:42.411Z,9.58
2019-03-25T14:40:11.111Z,6.67
2019-03-25T14:42:41.904Z,8.00
2019-03-25T14:45:10.579Z,6.45
2019-03-25T14:47:38.991Z,6.85
2019-03-25T14:50:08.311Z,4.87
2019-03-25T14:52:36.733Z,6.35
2019-03-25T14:55:08.411Z,4.80
2019-03-25T14:57:39.892Z,7.40
2019-03-25T15:00:24.477Z,5.30
2019-03-25T15:02:39.792Z,3.50
2019-03-25T15:05:11.138Z,7.22
2019-03-25T15:07:39.526Z,3.70
2019-03-25T15:10:08.369Z,6.12
2019-03-25T15:12:40.758Z,4.75
2019-03-25T15:15:10.567Z,3.67
2019-03-25T15:17:38.949Z,2.60
2019-03-25T15:20:15.393Z,8.48
2019-03-25T15:22:43.764Z,5.15
2019-03-25T15:25:13.883Z,5.25
2019-03-25T15:27:42.258Z,7.87
2019-03-25T15:30:11.286Z,4.42
2019-03-25T15:32:39.685Z,5.00
2019-03-25T15:35:08.601Z,4.08
2019-03-25T15:37:40.331Z,5.25
2019-03-25T15:40:16.823Z,6.42
2019-03-25T15:42:47.963Z,6.45
2019-03-25T15:45:17.574Z,9.65
2019-03-25T15:47:54.637Z,6.20
2019-03-25T15:50:23.975Z,8.08
2019-03-25T15:52:52.403Z,5.37
2019-03-25T15:55:23.890Z,6.03
2019-03-25T15:57:52.278Z,4.00
2019-03-25T16:00:27.719Z,9.30
2019-03-25T16:02:59.873Z,4.33
2019-03-25T16:05:33.677Z,5.35
2019-03-25T16:08:08.747Z,8.03
2019-03-25T16:10:37.179Z,5.80
2019-03-25T16:13:08.443Z,3.58
2019-03-25T16:15:46.426Z,5.72
2019-03-25T16:18:33.136Z,2.52
2019-03-25T16:21:04.650Z,3.80
2019-03-25T16:23:34.970Z,3.25
2019-03-25T16:26:04.658Z,1.42
2019-03-25T16:28:33.132Z,8.13
2019-03-25T16:31:08.571Z,7.20
2019-03-25T16:33:35.317Z,2.98
2019-03-25T16:36:16.280Z,3.62
2019-03-25T16:38:47.213Z,3.33
2019-03-25T16:41:21.887Z,2.58
2019-03-25T16:43:53.004Z,8.20
2019-03-25T16:46:21.407Z,5.87
2019-03-25T16:48:49.805Z,3.72
2019-03-25T16:51:19.183Z,5.78
2019-03-25T16:53:50.045Z,5.40
2019-03-25T16:56:18.440Z,3.72
2019-03-25T16:58:49.474Z,5.60
2019-03-25T17:01:20.275Z,3.75
2019-03-25T17:03:48.693Z,5.22
2019-03-25T17:06:17.086Z,2.17
2019-03-25T17:08:45.488Z,6.53
2019-03-25T17:11:13.904Z,4.10
2019-03-25T17:13:45.866Z,3.47
2019-03-25T17:16:14.495Z,4.00
2019-03-25T17:18:45.403Z,4.20
2019-03-25T17:21:27.030Z,2.85
2019-03-25T17:23:53.917Z,5.45
2019-03-25T17:26:24.957Z,3.67
2019-03-25T17:28:53.343Z,2.83
2019-03-25T17:31:21.735Z,3.65
2019-03-25T17:34:01.569Z,5.97
2019-03-25T17:36:33.907Z,3.52
2019-03-25T17:39:02.299Z,4.50
2019-03-25T17:41:33.421Z,4.28
2019-03-25T17:44:06.440Z,2.27
2019-03-25T17:46:38.874Z,4.08
2019-03-25T17:51:38.427Z,7.40
2019-03-25T17:54:13.954Z,5.60
2019-03-25T17:56:42.380Z,7.03
2019-03-25T17:59:10.831Z,3.33
2019-03-25T18:01:39.406Z,4.55
2019-03-25T18:04:07.878Z,3.80
2019-03-25T18:06:36.338Z,5.60
2019-03-25T18:09:08.991Z,4.78
2019-03-25T18:11:52.624Z,4.22
2019-03-25T18:14:20.493Z,5.58
2019-03-25T18:16:54.535Z,4.90
2019-03-25T18:19:25.408Z,6.05
2019-03-25T18:21:54.724Z,5.85
2019-03-25T18:24:23.111Z,4.37
2019-03-25T18:26:51.517Z,6.30
2019-03-25T18:29:19.900Z,3.83
2019-03-25T18:31:48.375Z,3.95
2019-03-25T18:34:32.015Z,5.28
2019-03-25T18:37:00.411Z,6.28
2019-03-25T18:39:29.751Z,10.38
2019-03-25T18:41:58.251Z,8.10
2019-03-25T18:44:27.657Z,5.02
2019-03-25T18:46:58.983Z,5.95
2019-03-25T18:49:27.386Z,6.50
2019-03-25T18:52:00.047Z,5.53
2019-03-25T18:54:29.464Z,7.05
2019-03-25T18:56:57.846Z,5.12
2019-03-25T18:59:27.189Z,5.68
2019-03-25T19:01:55.806Z,5.28
2019-03-25T19:04:33.327Z,5.05
2019-03-25T19:07:03.511Z,9.33
2019-03-25T19:09:34.973Z,5.17
2019-03-25T19:12:03.359Z,6.30
2019-03-25T19:14:31.769Z,6.75
2019-03-25T19:17:01.765Z,6.30
2019-03-25T19:19:38.581Z,9.90
2019-03-25T19:22:09.148Z,5.03
2019-03-25T19:24:38.711Z,7.73
2019-03-25T19:27:07.105Z,10.05
2019-03-25T19:29:35.617Z,7.93
2019-03-25T19:32:06.934Z,10.53
2019-03-25T19:34:36.560Z,5.42
2019-03-25T19:37:04.946Z,9.80
2019-03-25T19:39:33.357Z,9.60
2019-03-25T19:42:03.846Z,8.30
2019-03-25T19:44:33.665Z,7.20
2019-03-25T19:47:04.502Z,10.08
2019-03-25T19:49:36.471Z,11.53
2019-03-25T19:52:09.481Z,10.08
2019-03-25T19:54:39.179Z,9.33
2019-03-25T19:57:13.204Z,9.78
2019-03-25T19:59:41.593Z,11.27
2019-03-25T20:02:19.059Z,11.83
2019-03-25T20:04:40.182Z,9.35
2019-03-25T20:07:09.640Z,8.63
2019-03-25T20:09:38.065Z,14.63
2019-03-25T20:12:06.509Z,12.80
2019-03-25T20:14:38.487Z,11.83
2019-03-25T20:17:06.906Z,16.25
2019-03-25T20:19:42.414Z,13.33
2019-03-25T20:22:10.534Z,17.83
2019-03-25T20:24:38.891Z,14.25
2019-03-25T20:27:09.811Z,17.73
2019-03-25T20:29:45.855Z,17.07
2019-03-25T20:32:18.052Z,26.33
2019-03-25T20:34:48.087Z,17.37
2019-03-25T20:37:16.501Z,18.55
2019-03-25T20:39:45.427Z,20.73
2019-03-25T20:42:17.394Z,20.60
2019-03-25T20:44:45.835Z,22.37
2019-03-25T20:47:14.241Z,23.87
2019-03-25T20:49:44.224Z,24.53
2019-03-25T20:52:13.587Z,26.25
2019-03-25T20:54:43.315Z,28.13
2019-03-25T20:57:11.766Z,20.45
2019-03-25T20:59:40.193Z,25.25
2019-03-25T21:02:08.613Z,18.85
2019-03-25T21:04:40.913Z,18.93
2019-03-25T21:07:09.273Z,18.23
2019-03-25T21:09:37.778Z,19.87
2019-03-25T21:12:08.031Z,17.15
2019-03-25T21:14:36.496Z,14.60
2019-03-25T21:17:05.473Z,14.60
2019-03-25T21:19:33.827Z,14.03
2019-03-25T21:22:02.217Z,15.10
2019-03-25T21:24:33.484Z,14.40
2019-03-25T21:27:04.497Z,14.90
2019-03-25T21:29:32.896Z,17.47
2019-03-25T21:32:01.245Z,14.63
2019-03-25T21:34:34.717Z,13.75
2019-03-25T21:37:05.610Z,12.65
2019-03-25T21:39:33.467Z,14.18
2019-03-25T21:42:02.803Z,15.03
2019-03-25T21:44:35.339Z,14.65
2019-03-25T21:47:03.848Z,14.50
2019-03-25T21:49:35.969Z,14.47
2019-03-25T21:52:04.373Z,13.10
2019-03-25T21:54:33.339Z,13.47
2019-03-25T21:57:01.743Z,10.88
2019-03-25T21:59:32.493Z,13.03
2019-03-25T22:02:00.889Z,10.68
2019-03-25T22:04:29.811Z,12.00
2019-03-25T22:07:00.208Z,9.00
2019-03-25T22:09:36.213Z,10.82
2019-03-25T22:12:12.381Z,10.35
2019-03-25T22:14:40.803Z,8.40
2019-03-25T22:17:09.208Z,10.38
2019-03-25T22:19:37.599Z,7.63
2019-03-25T22:22:05.991Z,12.33
2019-03-25T22:24:34.455Z,10.10
2019-03-25T22:27:02.931Z,12.70
2019-03-25T22:29:34.017Z,8.28
2019-03-25T22:32:02.391Z,12.03
2019-03-25T22:34:30.767Z,11.22
2019-03-25T22:37:00.253Z,11.35
2019-03-25T22:39:37.347Z,12.58
2019-03-25T22:42:05.757Z,13.85
2019-03-25T22:44:34.143Z,11.93
2019-03-25T22:47:02.557Z,12.75
2019-03-25T22:49:33.812Z,12.73
2019-03-25T22:52:04.643Z,11.03
2019-03-25T22:54:33.056Z,14.97
2019-03-25T22:57:01.660Z,14.68
2019-03-25T22:59:30.042Z,20.60
2019-03-25T23:01:58.578Z,15.78
2019-03-25T23:04:29.305Z,15.60
2019-03-25T23:06:57.687Z,21.17
2019-03-25T23:09:26.084Z,15.98
2019-03-25T23:11:54.469Z,17.40
2019-03-25T23:14:25.234Z,15.30
2019-03-25T23:16:53.645Z,21.82
2019-03-25T23:19:22.064Z,21.27
2019-03-25T23:21:50.481Z,18.57
2019-03-25T23:24:18.876Z,16.60
2019-03-25T23:26:47.268Z,19.92
2019-03-25T23:29:15.650Z,17.75
2019-03-25T23:31:44.058Z,19.73
2019-03-25T23:34:12.442Z,21.87
2019-03-25T23:36:40.851Z,19.67
2019-03-25T23:39:12.839Z,23.05
2019-03-25T23:44:08.841Z,18.60
2019-03-25T23:46:37.225Z,22.25
2019-03-25T23:49:05.660Z,17.65
2019-03-25T23:51:36.550Z,28.80
2019-03-25T23:54:12.726Z,22.95
2019-03-25T23:56:41.962Z,21.68
2019-03-25T23:59:10.366Z,22.90
